createdAt,value
2024-04-18T00:02:11.988Z,6.16
2024-04-18T00:04:43.324Z,6.16
2024-04-18T00:07:14.660Z,6.16
2024-04-18T00:09:45.736Z,6.17
2024-04-18T00:12:17.046Z,6.18
2024-04-18T00:14:48.126Z,6.20
2024-04-18T00:17:17.794Z,6.21
2024-04-18T00:19:48.759Z,6.21
2024-04-18T00:22:19.375Z,6.21
2024-04-18T00:24:50.827Z,6.22
2024-04-18T00:27:21.985Z,6.20
2024-04-18T00:29:52.016Z,6.19
2024-04-18T00:32:23.189Z,6.19
2024-04-18T00:34:54.333Z,6.17
2024-04-18T00:37:25.581Z,6.17
2024-04-18T00:39:56.731Z,6.18
2024-04-18T00:42:27.881Z,6.20
2024-04-18T00:44:58.910Z,6.24
2024-04-18T00:47:30.495Z,6.26
2024-04-18T00:50:02.232Z,6.28
2024-04-18T00:52:33.366Z,6.28
2024-04-18T00:55:04.925Z,6.25
2024-04-18T00:57:38.125Z,6.26
2024-04-18T01:00:11.631Z,6.25
2024-04-18T01:02:44.533Z,6.26
2024-04-18T01:05:16.480Z,6.27
2024-04-18T01:07:47.730Z,6.28
2024-04-18T01:10:18.913Z,6.28
2024-04-18T01:12:59.960Z,6.27
2024-04-18T01:15:31.067Z,6.26
2024-04-18T01:18:02.270Z,6.26
2024-04-18T01:20:34.400Z,6.26
2024-04-18T01:23:06.876Z,6.26
2024-04-18T01:25:38.022Z,6.26
2024-04-18T01:28:07.808Z,6.26
2024-04-18T01:30:38.708Z,6.25
2024-04-18T01:33:09.929Z,6.25
2024-04-18T01:35:41.358Z,6.25
2024-04-18T01:38:12.338Z,6.24
2024-04-18T01:40:43.332Z,6.25
2024-04-18T01:43:14.388Z,6.25
2024-04-18T01:45:46.024Z,6.25
2024-04-18T01:48:17.353Z,6.28
2024-04-18T01:50:48.800Z,6.27
2024-04-18T01:53:19.756Z,6.26
2024-04-18T01:55:50.778Z,6.26
2024-04-18T01:58:21.990Z,6.24
2024-04-18T02:00:53.084Z,6.23
2024-04-18T02:03:22.743Z,6.22
2024-04-18T02:05:54.178Z,6.22
2024-04-18T02:08:25.124Z,6.20
2024-04-18T02:10:56.275Z,6.17
2024-04-18T02:13:27.335Z,6.13
2024-04-18T02:15:56.817Z,6.11
2024-04-18T02:18:28.044Z,6.09
2024-04-18T02:20:59.146Z,6.07
2024-04-18T02:23:29.815Z,6.06
2024-04-18T02:26:01.093Z,6.05
2024-04-18T02:28:32.513Z,6.04
2024-04-18T02:31:04.450Z,6.02
2024-04-18T02:33:35.918Z,6.01
2024-04-18T02:36:07.658Z,6.00
2024-04-18T02:38:38.644Z,6.00
2024-04-18T02:41:08.903Z,5.99
2024-04-18T02:43:39.985Z,6.00
2024-04-18T02:46:09.706Z,5.99
2024-04-18T02:48:40.885Z,5.99
2024-04-18T02:51:10.654Z,5.99
2024-04-18T02:53:41.700Z,6.00
2024-04-18T02:56:12.758Z,6.02
2024-04-18T02:58:42.562Z,6.04
2024-04-18T03:01:13.738Z,6.03
2024-04-18T03:03:44.807Z,6.03
2024-04-18T03:06:16.130Z,6.03
2024-04-18T03:08:46.310Z,6.04
2024-04-18T03:11:17.466Z,6.06
2024-04-18T03:13:48.457Z,6.07
2024-04-18T03:16:19.715Z,6.08
2024-04-18T03:18:50.967Z,6.09
2024-04-18T03:21:22.001Z,6.11
2024-04-18T03:23:53.330Z,6.13
2024-04-18T03:26:24.694Z,6.14
2024-04-18T03:28:56.272Z,6.16
2024-04-18T03:31:28.618Z,6.17
2024-04-18T03:33:59.820Z,6.19
2024-04-18T03:36:31.393Z,6.19
2024-04-18T03:39:03.622Z,6.18
2024-04-18T03:41:35.321Z,6.18
2024-04-18T03:44:06.657Z,6.18
2024-04-18T03:46:38.162Z,6.19
2024-04-18T03:49:09.659Z,6.19
2024-04-18T03:51:40.846Z,6.19
2024-04-18T03:54:11.907Z,6.22
2024-04-18T03:56:42.105Z,6.22
2024-04-18T03:59:13.684Z,6.22
2024-04-18T04:01:44.963Z,6.21
2024-04-18T04:04:16.048Z,6.21
2024-04-18T04:06:47.260Z,6.22
2024-04-18T04:09:18.399Z,6.21
2024-04-18T04:11:48.341Z,6.21
2024-04-18T04:14:19.643Z,6.20
2024-04-18T04:16:50.852Z,6.18
2024-04-18T04:19:21.965Z,6.17
2024-04-18T04:21:53.589Z,6.17
2024-04-18T04:24:24.174Z,6.16
2024-04-18T04:26:55.751Z,6.13
2024-04-18T04:29:26.694Z,6.11
2024-04-18T04:31:57.793Z,6.11
2024-04-18T04:34:28.856Z,6.10
2024-04-18T04:36:58.553Z,6.10
2024-04-18T04:39:28.245Z,6.11
2024-04-18T04:41:59.411Z,6.10
2024-04-18T04:44:28.848Z,6.10
2024-04-18T04:47:00.185Z,6.10
2024-04-18T04:49:31.427Z,6.09
2024-04-18T04:52:02.545Z,6.10
2024-04-18T04:54:32.263Z,6.11
2024-04-18T04:57:03.816Z,6.12
2024-04-18T04:59:34.712Z,6.13
2024-04-18T05:02:06.407Z,6.15
2024-04-18T05:04:37.673Z,6.17
2024-04-18T05:07:09.094Z,6.20
2024-04-18T05:09:40.353Z,6.23
2024-04-18T05:12:11.713Z,6.27
2024-04-18T05:14:42.710Z,6.29
2024-04-18T05:17:13.748Z,6.32
2024-04-18T05:19:45.255Z,6.35
2024-04-18T05:22:14.934Z,6.37
2024-04-18T05:24:46.261Z,6.37
2024-04-18T05:27:17.548Z,6.33
2024-04-18T05:30:02.554Z,6.31
2024-04-18T05:32:34.024Z,6.32
2024-04-18T05:35:05.450Z,6.30
2024-04-18T05:37:36.769Z,6.31
2024-04-18T05:40:10.139Z,6.33
2024-04-18T05:42:41.223Z,6.36
2024-04-18T05:45:12.302Z,6.39
2024-04-18T05:47:43.506Z,6.43
2024-04-18T05:50:14.832Z,6.47
2024-04-18T05:52:46.003Z,6.51
2024-04-18T05:55:17.314Z,6.52
2024-04-18T05:57:48.354Z,6.54
2024-04-18T06:00:18.265Z,6.55
2024-04-18T06:02:47.868Z,6.56
2024-04-18T06:05:19.349Z,6.56
2024-04-18T06:07:50.392Z,6.54
2024-04-18T06:10:22.019Z,6.53
2024-04-18T06:12:53.250Z,6.52
2024-04-18T06:15:24.408Z,6.54
2024-04-18T06:17:55.711Z,6.57
2024-04-18T06:20:27.579Z,6.59
2024-04-18T06:22:58.640Z,6.64
2024-04-18T06:25:32.141Z,6.68
2024-04-18T06:28:04.147Z,6.72
2024-04-18T06:30:35.158Z,6.74
2024-04-18T06:33:06.075Z,6.77
2024-04-18T06:35:37.650Z,6.78
2024-04-18T06:38:09.975Z,6.77
2024-04-18T06:40:41.265Z,6.79
2024-04-18T06:43:12.291Z,6.83
2024-04-18T06:45:42.337Z,6.86
2024-04-18T06:48:13.606Z,6.91
2024-04-18T06:50:45.359Z,6.96
2024-04-18T06:53:16.531Z,7.00
2024-04-18T06:55:49.085Z,7.01
2024-04-18T06:58:20.061Z,7.04
2024-04-18T07:00:50.417Z,7.07
2024-04-18T07:03:21.565Z,7.11
2024-04-18T07:05:53.098Z,7.15
2024-04-18T07:08:25.154Z,7.20
2024-04-18T07:10:56.297Z,7.24
2024-04-18T07:13:27.430Z,7.32
2024-04-18T07:15:58.665Z,7.42
2024-04-18T07:18:30.062Z,7.53
2024-04-18T07:21:01.265Z,7.64
2024-04-18T07:23:32.517Z,7.78
2024-04-18T07:26:04.084Z,7.89
2024-04-18T07:28:35.217Z,7.96
2024-04-18T07:31:06.578Z,8.03
2024-04-18T07:33:38.383Z,8.08
2024-04-18T07:36:09.778Z,8.15
2024-04-18T07:38:41.003Z,8.27
2024-04-18T07:41:12.117Z,8.39
2024-04-18T07:43:43.312Z,8.51
2024-04-18T07:46:15.030Z,8.66
2024-04-18T07:48:47.672Z,8.80
2024-04-18T07:51:18.979Z,8.89
2024-04-18T07:53:50.152Z,8.96
2024-04-18T07:56:22.053Z,9.03
2024-04-18T07:58:54.111Z,9.09
2024-04-18T08:01:27.331Z,9.10
2024-04-18T08:04:17.173Z,9.08
2024-04-18T08:06:55.028Z,9.07
2024-04-18T08:09:31.428Z,9.05
2024-04-18T08:12:23.289Z,9.09
2024-04-18T08:15:00.709Z,9.13
2024-04-18T08:17:35.374Z,9.15
2024-04-18T08:20:09.396Z,9.18
2024-04-18T08:22:40.861Z,9.21
2024-04-18T08:25:12.693Z,9.25
2024-04-18T08:27:43.982Z,9.30
2024-04-18T08:30:15.818Z,9.36
2024-04-18T08:32:47.249Z,9.41
2024-04-18T08:35:20.136Z,9.46
2024-04-18T08:37:51.571Z,9.54
2024-04-18T08:40:22.923Z,9.61
2024-04-18T08:42:54.990Z,9.61
2024-04-18T08:45:27.875Z,9.56
2024-04-18T08:47:59.992Z,9.49
2024-04-18T08:50:32.509Z,9.40
2024-04-18T08:53:06.199Z,9.26
2024-04-18T08:55:39.468Z,9.10
2024-04-18T08:58:12.394Z,8.97
2024-04-18T09:00:46.006Z,8.87
2024-04-18T09:03:17.382Z,8.81
2024-04-18T09:05:49.210Z,8.78
2024-04-18T09:08:21.011Z,8.74
2024-04-18T09:10:53.865Z,8.66
2024-04-18T09:13:26.257Z,8.60
2024-04-18T09:15:59.127Z,8.57
2024-04-18T09:18:35.721Z,8.58
2024-04-18T09:21:11.106Z,8.58
2024-04-18T09:23:43.481Z,8.60
2024-04-18T09:26:14.826Z,8.60
2024-04-18T09:28:46.289Z,8.61
2024-04-18T09:31:27.607Z,8.60
2024-04-18T09:34:07.840Z,8.60
2024-04-18T09:36:42.715Z,8.70
2024-04-18T09:39:23.542Z,8.82
2024-04-18T09:42:03.546Z,8.96
2024-04-18T09:44:38.267Z,9.16
2024-04-18T09:47:11.324Z,9.34
2024-04-18T09:49:43.981Z,9.51
2024-04-18T09:52:16.540Z,9.71
2024-04-18T09:54:48.327Z,9.89
2024-04-18T09:57:20.679Z,10.05
2024-04-18T09:59:53.631Z,10.19
2024-04-18T10:02:25.902Z,10.27
2024-04-18T10:04:58.314Z,10.33
2024-04-18T10:07:31.022Z,10.32
2024-04-18T10:10:03.238Z,10.30
2024-04-18T10:12:36.337Z,10.29
2024-04-18T10:15:10.450Z,10.23
2024-04-18T10:17:41.836Z,10.24
2024-04-18T10:20:16.521Z,10.29
2024-04-18T10:23:01.188Z,10.29
2024-04-18T10:25:41.787Z,10.30
2024-04-18T10:28:26.860Z,10.34
2024-04-18T10:31:06.754Z,10.38
2024-04-18T10:33:45.623Z,10.39
2024-04-18T10:36:17.277Z,10.39
2024-04-18T10:38:49.825Z,10.41
2024-04-18T10:41:24.612Z,10.44
2024-04-18T10:43:58.921Z,10.44
2024-04-18T10:46:31.330Z,10.42
2024-04-18T10:49:02.789Z,10.38
2024-04-18T10:51:36.032Z,10.36
2024-04-18T10:54:12.378Z,10.37
2024-04-18T10:56:44.186Z,10.35
2024-04-18T10:59:15.539Z,10.25
2024-04-18T11:01:46.778Z,10.12
2024-04-18T11:04:18.187Z,10.01
2024-04-18T11:06:49.612Z,9.93
2024-04-18T11:09:21.673Z,9.89
2024-04-18T11:11:53.193Z,9.86
2024-04-18T11:14:26.492Z,9.88
2024-04-18T11:17:01.305Z,9.91
2024-04-18T11:19:33.928Z,9.96
2024-04-18T11:22:05.444Z,10.06
2024-04-18T11:24:37.531Z,10.16
2024-04-18T11:27:09.504Z,10.24
2024-04-18T11:29:44.176Z,10.32
2024-04-18T11:32:16.404Z,10.39
2024-04-18T11:34:50.385Z,10.44
2024-04-18T11:37:26.023Z,10.50
2024-04-18T11:39:59.392Z,10.54
2024-04-18T11:42:30.661Z,10.56
2024-04-18T11:45:02.067Z,10.59
2024-04-18T11:47:34.345Z,10.64
2024-04-18T11:50:07.654Z,10.67
2024-04-18T11:52:38.793Z,10.67
2024-04-18T11:55:09.849Z,10.65
2024-04-18T11:57:41.204Z,10.64
2024-04-18T12:00:14.670Z,10.65
2024-04-18T12:02:53.139Z,10.70
2024-04-18T12:05:24.841Z,10.82
2024-04-18T12:07:56.752Z,10.95
2024-04-18T12:10:27.836Z,11.09
2024-04-18T12:12:59.101Z,11.29
2024-04-18T12:15:32.819Z,11.47
2024-04-18T12:18:05.191Z,11.66
2024-04-18T12:20:36.312Z,11.85
2024-04-18T12:23:07.715Z,11.93
2024-04-18T12:25:39.005Z,11.94
2024-04-18T12:28:10.176Z,11.92
2024-04-18T12:30:41.464Z,11.83
2024-04-18T12:33:14.119Z,11.69
2024-04-18T12:35:50.929Z,11.57
2024-04-18T12:38:22.292Z,11.47
2024-04-18T12:40:54.838Z,11.32
2024-04-18T12:43:26.555Z,11.22
2024-04-18T12:46:06.806Z,11.20
2024-04-18T12:48:46.037Z,11.23
2024-04-18T12:51:17.917Z,11.28
2024-04-18T12:53:49.622Z,11.30
2024-04-18T12:56:21.743Z,11.32
2024-04-18T12:58:52.612Z,11.35
2024-04-18T13:01:23.740Z,11.42
2024-04-18T13:03:56.676Z,11.51
2024-04-18T13:06:29.333Z,11.56
2024-04-18T13:09:00.787Z,11.63
2024-04-18T13:11:32.704Z,11.68
2024-04-18T13:14:05.426Z,11.73
2024-04-18T13:16:37.164Z,11.74
2024-04-18T13:19:08.213Z,11.77
2024-04-18T13:21:39.655Z,11.80
2024-04-18T13:24:12.242Z,11.81
2024-04-18T13:26:43.841Z,11.82
2024-04-18T13:29:15.367Z,11.82
2024-04-18T13:31:46.825Z,11.77
2024-04-18T13:34:18.222Z,11.63
2024-04-18T13:36:49.625Z,11.50
2024-04-18T13:39:21.018Z,11.34
2024-04-18T13:41:52.379Z,11.22
2024-04-18T13:44:23.574Z,11.13
2024-04-18T13:46:54.858Z,11.09
2024-04-18T13:49:26.172Z,11.08
2024-04-18T13:51:57.426Z,11.10
2024-04-18T13:54:28.587Z,11.12
2024-04-18T13:56:59.835Z,11.14
2024-04-18T13:59:31.040Z,11.18
2024-04-18T14:02:04.113Z,11.22
2024-04-18T14:04:35.294Z,11.26
2024-04-18T14:07:07.381Z,11.32
2024-04-18T14:09:42.851Z,11.37
2024-04-18T14:12:14.576Z,11.40
2024-04-18T14:14:46.350Z,11.41
2024-04-18T14:17:33.957Z,11.37
2024-04-18T14:20:06.486Z,11.32
2024-04-18T14:22:38.060Z,11.29
2024-04-18T14:25:09.676Z,11.24
2024-04-18T14:27:41.163Z,11.20
2024-04-18T14:30:13.449Z,11.21
2024-04-18T14:32:44.781Z,11.22
2024-04-18T14:35:16.227Z,11.35
2024-04-18T14:37:47.579Z,11.54
2024-04-18T14:40:18.766Z,11.72
2024-04-18T14:42:50.086Z,11.89
2024-04-18T14:45:21.275Z,12.00
2024-04-18T14:47:52.685Z,12.08
2024-04-18T14:50:24.244Z,12.16
2024-04-18T14:52:55.596Z,12.27
2024-04-18T14:55:28.451Z,12.43
2024-04-18T14:57:59.839Z,12.53
2024-04-18T15:00:32.521Z,12.58
2024-04-18T15:03:04.021Z,12.73
2024-04-18T15:05:35.482Z,12.92
2024-04-18T15:08:09.330Z,13.13
2024-04-18T15:10:40.608Z,13.35
2024-04-18T15:13:12.428Z,13.58
2024-04-18T15:15:45.804Z,13.75
2024-04-18T15:18:17.305Z,13.85
2024-04-18T15:20:48.694Z,13.79
2024-04-18T15:23:19.915Z,13.73
2024-04-18T15:25:51.167Z,13.74
2024-04-18T15:28:22.597Z,13.82
2024-04-18T15:30:54.416Z,13.99
2024-04-18T15:33:25.398Z,14.12
2024-04-18T15:35:56.185Z,14.27
2024-04-18T15:38:25.659Z,14.40
2024-04-18T15:40:55.653Z,14.52
2024-04-18T15:43:26.619Z,14.62
2024-04-18T15:45:59.281Z,14.67
2024-04-18T15:48:32.052Z,14.75
2024-04-18T15:51:03.587Z,14.87
2024-04-18T15:53:35.465Z,14.97
2024-04-18T15:56:06.982Z,15.09
2024-04-18T15:58:37.945Z,15.16
2024-04-18T16:01:08.843Z,15.20
2024-04-18T16:03:40.666Z,15.23
2024-04-18T16:06:11.826Z,15.24
2024-04-18T16:08:43.024Z,15.17
2024-04-18T16:11:13.791Z,15.05
2024-04-18T16:13:43.191Z,14.83
2024-04-18T16:16:12.791Z,14.62
2024-04-18T16:18:44.422Z,14.41
2024-04-18T16:21:15.664Z,14.17
2024-04-18T16:23:46.591Z,13.91
2024-04-18T16:26:17.766Z,13.66
2024-04-18T16:28:48.798Z,13.39
2024-04-18T16:31:20.410Z,13.13
2024-04-18T16:33:51.412Z,12.88
2024-04-18T16:36:31.528Z,12.69
2024-04-18T16:39:10.839Z,12.57
2024-04-18T16:41:42.630Z,12.46
2024-04-18T16:44:13.693Z,12.33
2024-04-18T16:46:44.588Z,12.20
2024-04-18T16:49:15.540Z,12.11
2024-04-18T16:51:49.253Z,12.05
2024-04-18T16:54:20.380Z,12.04
2024-04-18T16:56:51.291Z,12.04
2024-04-18T16:59:21.300Z,12.02
2024-04-18T17:01:52.284Z,11.97
2024-04-18T17:04:23.454Z,11.93
2024-04-18T17:06:54.607Z,11.88
2024-04-18T17:09:25.846Z,11.85
2024-04-18T17:11:57.189Z,11.78
2024-04-18T17:14:28.291Z,11.73
2024-04-18T17:16:59.296Z,11.66
2024-04-18T17:19:32.902Z,11.55
2024-04-18T17:22:07.446Z,11.44
2024-04-18T17:24:38.862Z,11.32
2024-04-18T17:27:10.225Z,11.24
2024-04-18T17:29:42.425Z,11.11
2024-04-18T17:32:13.824Z,10.99
2024-04-18T17:34:45.299Z,10.91
2024-04-18T17:37:16.592Z,10.83
2024-04-18T17:39:49.167Z,10.78
2024-04-18T17:42:20.262Z,10.72
2024-04-18T17:44:51.945Z,10.68
2024-04-18T17:47:23.118Z,10.64
2024-04-18T17:49:54.613Z,10.63
2024-04-18T17:52:25.496Z,10.60
2024-04-18T17:54:59.443Z,10.57
2024-04-18T17:57:31.957Z,10.55
2024-04-18T18:00:02.907Z,10.55
2024-04-18T18:02:34.147Z,10.51
2024-04-18T18:05:06.351Z,10.43
2024-04-18T18:07:37.679Z,10.30
2024-04-18T18:10:09.686Z,10.22
2024-04-18T18:12:40.799Z,10.14
2024-04-18T18:15:12.936Z,10.06
2024-04-18T18:17:44.783Z,9.99
2024-04-18T18:20:16.242Z,9.93
2024-04-18T18:22:47.389Z,9.87
2024-04-18T18:25:18.582Z,9.81
2024-04-18T18:27:49.682Z,9.74
2024-04-18T18:30:21.002Z,9.67
2024-04-18T18:32:52.574Z,9.57
2024-04-18T18:35:24.156Z,9.50
2024-04-18T18:37:57.821Z,9.42
2024-04-18T18:40:28.926Z,9.34
2024-04-18T18:43:01.759Z,9.30
2024-04-18T18:45:33.427Z,9.25
2024-04-18T18:48:05.390Z,9.21
2024-04-18T18:50:42.682Z,9.16
2024-04-18T18:53:14.004Z,9.12
2024-04-18T18:55:47.472Z,9.07
2024-04-18T18:58:18.806Z,9.03
2024-04-18T19:00:50.453Z,8.98
2024-04-18T19:03:22.239Z,8.95
2024-04-18T19:05:53.491Z,8.92
2024-04-18T19:08:24.521Z,8.88
2024-04-18T19:10:56.698Z,8.84
2024-04-18T19:13:29.304Z,8.79
2024-04-18T19:16:00.783Z,8.76
2024-04-18T19:18:31.783Z,8.73
2024-04-18T19:21:02.988Z,8.70
2024-04-18T19:23:43.370Z,8.64
2024-04-18T19:26:16.849Z,8.62
2024-04-18T19:28:48.043Z,8.60
2024-04-18T19:31:20.760Z,8.59
2024-04-18T19:33:55.364Z,8.56
2024-04-18T19:36:26.778Z,8.53
2024-04-18T19:38:57.635Z,8.49
2024-04-18T19:41:28.556Z,8.44
2024-04-18T19:43:58.196Z,8.40
2024-04-18T19:46:29.132Z,8.36
2024-04-18T19:49:00.799Z,8.31
2024-04-18T19:51:33.219Z,8.24
2024-04-18T19:54:04.607Z,8.18
2024-04-18T19:56:35.956Z,8.11
2024-04-18T19:59:07.292Z,8.05
2024-04-18T20:01:38.955Z,7.97
2024-04-18T20:04:10.241Z,7.91
2024-04-18T20:06:42.624Z,7.84
2024-04-18T20:09:14.097Z,7.78
2024-04-18T20:11:45.028Z,7.71
2024-04-18T20:14:14.624Z,7.64
2024-04-18T20:16:45.805Z,7.55
2024-04-18T20:19:17.938Z,7.46
2024-04-18T20:21:49.535Z,7.36
2024-04-18T20:24:20.558Z,7.27
2024-04-18T20:26:52.091Z,7.21
2024-04-18T20:29:21.874Z,7.16
2024-04-18T20:31:51.430Z,7.11
2024-04-18T20:34:23.295Z,7.06
2024-04-18T20:36:54.317Z,6.99
2024-04-18T20:39:23.765Z,6.92
2024-04-18T20:41:55.274Z,6.85
2024-04-18T20:44:26.197Z,6.78
2024-04-18T20:46:57.132Z,6.71
2024-04-18T20:49:28.443Z,6.66
2024-04-18T20:52:00.124Z,6.60
2024-04-18T20:54:31.217Z,6.54
2024-04-18T20:57:02.315Z,6.49
2024-04-18T20:59:31.965Z,6.45
2024-04-18T21:02:03.026Z,6.42
2024-04-18T21:04:34.669Z,6.33
2024-04-18T21:07:06.353Z,6.28
2024-04-18T21:09:37.627Z,6.25
2024-04-18T21:12:09.729Z,6.24
2024-04-18T21:14:41.273Z,6.24
2024-04-18T21:17:12.378Z,6.22
2024-04-18T21:19:43.838Z,6.22
2024-04-18T21:22:14.888Z,6.21
2024-04-18T21:24:44.772Z,6.20
2024-04-18T21:27:16.088Z,6.20
2024-04-18T21:29:47.955Z,6.19
2024-04-18T21:32:19.541Z,6.20
2024-04-18T21:34:50.675Z,6.19
2024-04-18T21:37:21.649Z,6.18
2024-04-18T21:39:52.943Z,6.18
2024-04-18T21:42:24.806Z,6.17
2024-04-18T21:44:55.814Z,6.17
2024-04-18T21:47:25.519Z,6.16
2024-04-18T21:49:56.684Z,6.16
2024-04-18T21:52:28.349Z,6.14
2024-04-18T21:54:59.612Z,6.14
2024-04-18T21:57:30.777Z,6.12
2024-04-18T22:00:01.720Z,6.10
2024-04-18T22:02:33.647Z,6.07
2024-04-18T22:05:05.144Z,6.02
2024-04-18T22:07:36.370Z,5.98
2024-04-18T22:10:09.874Z,5.95
2024-04-18T22:12:41.054Z,5.95
2024-04-18T22:15:12.626Z,5.93
2024-04-18T22:17:43.804Z,5.92
2024-04-18T22:20:14.792Z,5.92
2024-04-18T22:22:46.368Z,5.92
2024-04-18T22:25:17.675Z,5.93
2024-04-18T22:27:48.722Z,5.94
2024-04-18T22:30:19.847Z,5.93
2024-04-18T22:32:49.655Z,5.90
2024-04-18T22:35:19.564Z,5.87
2024-04-18T22:37:49.558Z,5.86
2024-04-18T22:40:21.065Z,5.84
2024-04-18T22:42:52.350Z,5.83
2024-04-18T22:45:23.383Z,5.83
2024-04-18T22:47:54.659Z,5.83
2024-04-18T22:50:25.811Z,5.83
2024-04-18T22:52:56.858Z,5.82
2024-04-18T22:55:26.342Z,5.81
2024-04-18T22:58:01.255Z,5.80
2024-04-18T23:00:36.251Z,5.78
2024-04-18T23:03:08.221Z,5.76
2024-04-18T23:05:39.692Z,5.75
2024-04-18T23:08:11.127Z,5.75
2024-04-18T23:10:42.452Z,5.77
2024-04-18T23:13:13.695Z,5.79
2024-04-18T23:15:45.018Z,5.83
2024-04-18T23:18:16.668Z,5.85
2024-04-18T23:20:47.976Z,5.89
2024-04-18T23:23:19.464Z,5.91
2024-04-18T23:25:50.694Z,5.94
2024-04-18T23:28:22.080Z,5.95
2024-04-18T23:30:51.757Z,5.96
2024-04-18T23:33:23.036Z,5.96
2024-04-18T23:35:54.195Z,5.95
2024-04-18T23:38:23.776Z,5.94
2024-04-18T23:40:54.850Z,5.92
2024-04-18T23:43:26.115Z,5.91
2024-04-18T23:45:57.767Z,5.89
2024-04-18T23:48:28.903Z,5.87
2024-04-18T23:50:59.991Z,5.86
2024-04-18T23:53:29.574Z,5.86
2024-04-18T23:56:00.816Z,5.85
2024-04-18T23:58:33.908Z,5.83
